Time;durP1;ratioP1;P1;durP2;ratioP2;P2;SDS_P1;SDS_P2;PMS_P1;PMS_P2;Temp;Humidity;BMP_temperature;BMP_pressure;BME280_temperature;BME280_humidity;BME280_pressure;Samples;Min_cycle;Max_cycle;Signal;HPM_P1;HPM_P2
2022/11/23 00:01:23;;;;;;;24.77;14.02;;;12.00;63.60;;;;;;4960597;28;20025;-86
2022/11/23 00:03:54;;;;;;;23.98;13.52;;;11.90;64.80;;;;;;4960568;28;20500;-89
2022/11/23 00:06:21;;;;;;;22.52;13.10;;;11.90;64.80;;;;;;4960427;28;20377;-88
2022/11/23 00:08:47;;;;;;;24.48;14.30;;;12.00;64.10;;;;;;4960471;28;20486;-86
2022/11/23 00:11:13;;;;;;;22.95;14.40;;;11.90;65.10;;;;;;4933576;28;20112;-87
2022/11/23 00:13:39;;;;;;;24.00;13.27;;;12.00;64.40;;;;;;4922042;29;20037;-86
2022/11/23 00:16:12;;;;;;;24.08;13.60;;;12.00;64.50;;;;;;4938008;29;20037;-88
2022/11/23 00:18:37;;;;;;;21.88;12.90;;;12.20;64.40;;;;;;4941117;29;20401;-85
2022/11/23 00:21:11;;;;;;;27.88;13.63;;;12.20;63.90;;;;;;4941133;29;20040;-88
2022/11/23 00:23:37;;;;;;;21.15;13.00;;;12.20;63.70;;;;;;4944647;29;20041;-88
2022/11/23 00:26:03;;;;;;;23.45;12.70;;;12.10;64.50;;;;;;4944596;29;20117;-88
2022/11/23 00:28:29;;;;;;;22.15;12.75;;;12.30;64.20;;;;;;4944499;29;20029;-87
2022/11/23 00:30:55;;;;;;;25.73;13.40;;;12.60;63.20;;;;;;4944325;28;20075;-88
2022/11/23 00:33:23;;;;;;;21.83;12.52;;;12.70;62.70;;;;;;4943976;28;20048;-90
2022/11/23 00:36:01;;;;;;;23.38;13.20;;;12.60;62.50;;;;;;4944270;29;20436;-87
2022/11/23 00:38:28;;;;;;;23.90;12.60;;;12.70;63.00;;;;;;4943631;28;20369;-92
2022/11/23 00:41:02;;;;;;;22.58;12.65;;;12.70;62.20;;;;;;4944251;29;20065;-88
2022/11/23 00:43:28;;;;;;;20.77;12.48;;;12.60;62.70;;;;;;4943544;28;20127;-86
2022/11/23 00:46:19;;;;;;;23.98;12.65;;;12.40;63.10;;;;;;4943884;28;20033;-89
2022/11/23 00:48:46;;;;;;;20.33;12.25;;;12.40;63.00;;;;;;4922162;28;20045;-90
2022/11/23 00:51:15;;;;;;;22.33;12.13;;;12.60;62.80;;;;;;4943957;28;20032;-89
2022/11/23 00:53:41;;;;;;;21.42;12.48;;;12.70;62.90;;;;;;4956742;28;20033;-88
2022/11/23 00:56:08;;;;;;;21.70;11.75;;;12.80;62.80;;;;;;4945389;28;20107;-91
2022/11/23 00:58:37;;;;;;;20.15;11.02;;;12.70;61.40;;;;;;4944024;29;20029;-89
2022/11/23 01:01:06;;;;;;;21.13;12.05;;;12.20;63.40;;;;;;4944418;29;20033;-87
2022/11/23 01:03:32;;;;;;;20.08;11.85;;;12.20;63.40;;;;;;4944154;29;20045;-88
2022/11/23 01:06:11;;;;;;;21.98;12.00;;;11.70;64.90;;;;;;4943992;29;20111;-90
2022/11/23 01:08:37;;;;;;;20.38;11.73;;;11.90;64.60;;;;;;4943994;29;20025;-90
2022/11/23 01:11:07;;;;;;;20.50;11.45;;;12.20;63.40;;;;;;4944139;29;20037;-87
2022/11/23 01:13:34;;;;;;;19.15;10.68;;;12.40;63.20;;;;;;4944600;29;20026;-90
2022/11/23 01:16:00;;;;;;;18.20;10.73;;;12.20;62.80;;;;;;4943753;29;20044;-90
2022/11/23 01:18:26;;;;;;;19.80;11.77;;;12.40;63.30;;;;;;4943758;29;20025;-87
2022/11/23 01:20:52;;;;;;;17.73;10.63;;;12.70;62.40;;;;;;4943774;29;20053;-87
2022/11/23 01:23:18;;;;;;;19.45;11.55;;;12.50;62.50;;;;;;4943241;29;20132;-90
2022/11/23 01:25:44;;;;;;;22.73;10.98;;;12.60;61.90;;;;;;4945994;29;20400;-90
2022/11/23 01:28:10;;;;;;;16.52;10.32;;;12.40;62.40;;;;;;4955589;28;20112;-89
2022/11/23 01:30:35;;;;;;;17.50;10.57;;;12.60;62.30;;;;;;4943145;29;20436;-89
2022/11/23 01:33:02;;;;;;;18.17;10.40;;;12.70;62.10;;;;;;4954576;28;20033;-88
2022/11/23 01:35:28;;;;;;;16.70;10.65;;;12.80;62.30;;;;;;4941001;29;20060;-84
2022/11/23 01:37:54;;;;;;;17.65;10.82;;;12.80;62.20;;;;;;4943078;29;20036;-87
2022/11/23 01:40:20;;;;;;;16.92;9.98;;;12.80;62.50;;;;;;4943376;29;20373;-91
2022/11/23 01:42:55;;;;;;;17.42;10.55;;;12.40;61.80;;;;;;4942611;29;20040;-89
2022/11/23 01:46:02;;;;;;;18.17;10.85;;;11.80;64.30;;;;;;4942513;29;20108;-87
2022/11/23 01:48:31;;;;;;;17.67;9.88;;;11.80;64.90;;;;;;4941688;29;20049;-84
2022/11/23 01:50:59;;;;;;;16.95;10.25;;;11.60;64.70;;;;;;4951987;28;20032;-85
2022/11/23 01:53:27;;;;;;;20.45;10.93;;;11.20;66.50;;;;;;4948839;28;20036;-87
2022/11/23 01:55:56;;;;;;;21.77;10.70;;;11.20;66.50;;;;;;4957400;28;20042;-86
2022/11/23 01:58:24;;;;;;;15.65;9.88;;;11.50;65.80;;;;;;4959054;28;20027;-84
2022/11/23 02:00:50;;;;;;;16.52;10.13;;;11.80;64.20;;;;;;4959115;28;20027;-86
2022/11/23 02:03:17;;;;;;;16.35;9.95;;;11.20;66.40;;;;;;4958800;28;20049;-86
2022/11/23 02:05:48;;;;;;;19.42;10.27;;;11.50;66.60;;;;;;4959015;28;20053;-88
2022/11/23 02:08:16;;;;;;;17.23;9.95;;;12.00;65.90;;;;;;4959174;28;20027;-89
2022/11/23 02:10:42;;;;;;;17.20;10.20;;;12.20;64.00;;;;;;4958818;28;20034;-85
2022/11/23 02:13:11;;;;;;;16.75;10.20;;;12.40;63.80;;;;;;4975961;28;20046;-88
2022/11/23 02:15:37;;;;;;;18.10;10.25;;;12.50;63.40;;;;;;4974824;28;20503;-87
2022/11/23 02:18:11;;;;;;;18.17;10.25;;;12.50;63.40;;;;;;4974903;28;20035;-85
2022/11/23 02:20:37;;;;;;;15.48;9.48;;;12.70;62.40;;;;;;4974931;28;20029;-85
2022/11/23 02:23:03;;;;;;;17.00;9.75;;;12.70;62.40;;;;;;4974925;28;20553;-88
2022/11/23 02:25:44;;;;;;;15.07;9.43;;;12.50;62.80;;;;;;4975016;28;20067;-90
2022/11/23 02:28:20;;;;;;;15.15;8.98;;;11.80;63.90;;;;;;4974676;28;20033;-89
2022/11/23 02:30:49;;;;;;;16.23;8.20;;;11.60;66.20;;;;;;4978001;28;20113;-84
2022/11/23 02:33:14;;;;;;;15.75;8.68;;;11.80;64.40;;;;;;4958262;28;20041;-86
2022/11/23 02:35:54;;;;;;;15.35;9.88;;;12.00;64.80;;;;;;4952014;28;20109;-85
2022/11/23 02:38:22;;;;;;;15.20;9.05;;;12.40;64.30;;;;;;4962041;28;20385;-85
2022/11/23 02:40:48;;;;;;;16.42;9.57;;;12.70;63.60;;;;;;4977253;28;20114;-86
2022/11/23 02:43:14;;;;;;;11.63;7.65;;;12.80;62.10;;;;;;4977470;28;20136;-86
2022/11/23 02:45:49;;;;;;;13.63;8.18;;;12.10;63.20;;;;;;4974993;28;20540;-88
2022/11/23 02:48:16;;;;;;;15.32;9.23;;;12.20;64.20;;;;;;4942020;28;20520;-85
2022/11/23 02:50:42;;;;;;;13.05;8.20;;;12.40;63.80;;;;;;4958148;28;20490;-87
2022/11/23 02:53:08;;;;;;;12.95;8.30;;;12.30;62.20;;;;;;4959536;28;20059;-87
2022/11/23 02:55:33;;;;;;;11.82;8.00;;;12.30;63.80;;;;;;4977435;28;20030;-87
2022/11/23 02:57:59;;;;;;;15.55;9.18;;;11.90;64.70;;;;;;4960706;28;20080;-88
2022/11/23 03:00:25;;;;;;;15.75;9.40;;;11.90;65.80;;;;;;4953395;28;20092;-86
2022/11/23 03:02:50;;;;;;;13.07;8.57;;;12.40;64.00;;;;;;4957971;28;20086;-85
2022/11/23 03:05:16;;;;;;;14.43;8.30;;;12.60;63.20;;;;;;4977183;28;20497;-87
2022/11/23 03:07:42;;;;;;;13.52;8.57;;;12.90;62.80;;;;;;4955096;28;20031;-86
2022/11/23 03:10:09;;;;;;;13.77;8.73;;;13.00;61.70;;;;;;4947832;28;20023;-87
2022/11/23 03:12:34;;;;;;;13.27;8.40;;;12.70;62.40;;;;;;4957659;28;20434;-88
2022/11/23 03:15:00;;;;;;;12.48;7.95;;;12.40;63.70;;;;;;4958417;28;20078;-87
2022/11/23 03:17:27;;;;;;;12.90;8.20;;;12.10;64.10;;;;;;4955977;28;20053;-89
2022/11/23 03:19:52;;;;;;;13.95;8.25;;;11.80;65.00;;;;;;4957649;28;20019;-88
2022/11/23 03:22:18;;;;;;;12.23;7.95;;;11.90;65.40;;;;;;4957743;28;20039;-88
2022/11/23 03:24:44;;;;;;;14.77;8.45;;;12.10;65.10;;;;;;4973847;28;20026;-89
2022/11/23 03:27:10;;;;;;;13.70;7.93;;;12.50;64.30;;;;;;4976522;28;20029;-86
2022/11/23 03:29:36;;;;;;;13.00;7.30;;;12.30;63.90;;;;;;4957471;28;20061;-86
2022/11/23 03:32:02;;;;;;;13.95;8.18;;;12.30;64.10;;;;;;4958216;28;20070;-85
2022/11/23 03:34:27;;;;;;;13.52;8.15;;;12.10;64.90;;;;;;4957674;28;20023;-88
2022/11/23 03:36:53;;;;;;;13.32;7.75;;;12.40;64.70;;;;;;4957593;28;20137;-87
2022/11/23 03:39:19;;;;;;;12.23;7.70;;;12.00;65.40;;;;;;4957447;28;20027;-85
2022/11/23 03:41:44;;;;;;;12.60;6.93;;;12.00;65.00;;;;;;4965108;28;20100;-85
2022/11/23 03:44:10;;;;;;;12.80;7.68;;;11.80;65.00;;;;;;4965650;28;20129;-88
2022/11/23 03:46:36;;;;;;;14.52;7.55;;;11.60;66.80;;;;;;4957550;28;20529;-87
2022/11/23 03:49:02;;;;;;;10.13;6.55;;;11.80;65.90;;;;;;4957100;28;20030;-87
2022/11/23 03:51:27;;;;;;;12.48;7.43;;;12.00;65.00;;;;;;4957865;28;20397;-86
2022/11/23 03:53:53;;;;;;;13.57;7.38;;;12.10;65.10;;;;;;4962495;28;20026;-89
2022/11/23 03:56:19;;;;;;;12.30;7.43;;;12.50;64.20;;;;;;4949167;28;20104;-86
2022/11/23 03:58:44;;;;;;;11.05;6.95;;;12.70;63.40;;;;;;4965242;28;20036;-86
2022/11/23 04:01:10;;;;;;;10.25;7.32;;;12.70;62.70;;;;;;4964226;28;20035;-86
2022/11/23 04:03:36;;;;;;;10.75;6.65;;;12.80;63.70;;;;;;4953323;28;20076;-86
2022/11/23 04:06:02;;;;;;;10.05;6.35;;;12.80;63.30;;;;;;4944860;29;20025;-87
2022/11/23 04:08:27;;;;;;;10.52;6.55;;;12.70;63.20;;;;;;4944751;28;20033;-86
2022/11/23 04:10:57;;;;;;;11.43;7.07;;;12.50;63.90;;;;;;4944498;29;20064;-86
2022/11/23 04:13:22;;;;;;;12.80;7.00;;;12.60;63.70;;;;;;4944634;29;20087;-86
2022/11/23 04:15:48;;;;;;;10.32;6.53;;;12.90;63.50;;;;;;4944406;29;20432;-86
2022/11/23 04:18:14;;;;;;;12.52;7.35;;;12.90;63.20;;;;;;4944537;28;20497;-85
2022/11/23 04:20:40;;;;;;;11.15;6.80;;;12.70;63.40;;;;;;4944680;29;20071;-85
2022/11/23 04:23:06;;;;;;;11.68;7.10;;;12.50;63.70;;;;;;4943834;28;20388;-86
2022/11/23 04:25:31;;;;;;;12.82;6.85;;;12.50;63.70;;;;;;4944119;28;20376;-86
2022/11/23 04:27:57;;;;;;;11.35;6.88;;;12.70;62.90;;;;;;4943956;28;20477;-86
2022/11/23 04:30:23;;;;;;;11.57;7.13;;;12.70;63.40;;;;;;4952023;28;20031;-84
2022/11/23 04:32:48;;;;;;;10.60;6.30;;;12.80;63.50;;;;;;4938207;28;20440;-86
2022/11/23 04:35:14;;;;;;;10.40;6.60;;;12.80;63.10;;;;;;4943816;29;20040;-88
2022/11/23 04:37:40;;;;;;;12.02;7.47;;;12.70;63.50;;;;;;4944098;28;20091;-86
2022/11/23 04:40:06;;;;;;;10.57;6.38;;;12.90;63.00;;;;;;4958312;28;20037;-88
2022/11/23 04:42:32;;;;;;;11.15;6.63;;;12.80;62.90;;;;;;4943924;29;20033;-89
2022/11/23 04:44:58;;;;;;;9.15;5.97;;;12.90;63.60;;;;;;4944435;29;20097;-85
2022/11/23 04:47:24;;;;;;;9.65;5.88;;;12.80;62.80;;;;;;4944298;29;20029;-88
2022/11/23 04:49:50;;;;;;;11.48;6.78;;;12.70;63.50;;;;;;4944107;29;20124;-87
2022/11/23 04:52:16;;;;;;;9.88;6.13;;;12.60;63.70;;;;;;4948580;28;20107;-85
2022/11/23 04:54:42;;;;;;;11.20;6.00;;;12.50;63.70;;;;;;4946077;28;20033;-85
2022/11/23 04:57:08;;;;;;;10.05;6.35;;;12.50;64.00;;;;;;4958153;28;20040;-87
2022/11/23 04:59:34;;;;;;;10.95;5.93;;;12.80;63.00;;;;;;4953895;28;20056;-86
2022/11/23 05:02:00;;;;;;;11.93;6.72;;;13.00;62.80;;;;;;4945749;28;20041;-89
2022/11/23 05:04:25;;;;;;;10.90;5.72;;;13.20;62.20;;;;;;4944287;29;20088;-87
2022/11/23 05:06:51;;;;;;;12.10;6.90;;;13.20;62.40;;;;;;4943391;29;20079;-88
2022/11/23 05:09:17;;;;;;;9.65;6.00;;;13.10;62.30;;;;;;4950007;28;20032;-86
2022/11/23 05:11:43;;;;;;;11.20;7.05;;;12.40;63.30;;;;;;4955930;28;20087;-87
2022/11/23 05:14:08;;;;;;;11.93;7.00;;;12.40;64.20;;;;;;4950644;28;20413;-86
2022/11/23 05:16:34;;;;;;;10.48;6.32;;;12.70;63.10;;;;;;4947657;28;20510;-86
2022/11/23 05:19:00;;;;;;;12.68;7.25;;;12.80;63.30;;;;;;4943410;29;20030;-85
2022/11/23 05:21:26;;;;;;;10.60;6.90;;;12.80;63.10;;;;;;4943068;28;20025;-87
2022/11/23 05:23:51;;;;;;;10.85;6.40;;;12.90;63.60;;;;;;4943390;29;20035;-89
2022/11/23 05:26:17;;;;;;;12.23;6.45;;;12.80;62.70;;;;;;4943397;28;20029;-86
2022/11/23 05:28:43;;;;;;;9.27;6.10;;;12.20;64.20;;;;;;4943233;28;20088;-85
2022/11/23 05:31:09;;;;;;;9.80;6.40;;;11.60;66.50;;;;;;4942971;28;20549;-85
2022/11/23 05:33:35;;;;;;;14.15;7.88;;;11.50;66.50;;;;;;4943156;28;20084;-85
2022/11/23 05:36:01;;;;;;;13.32;6.70;;;11.60;66.50;;;;;;4940299;28;20033;-85
2022/11/23 05:38:26;;;;;;;10.50;6.20;;;11.30;67.70;;;;;;4936943;29;20036;-83
2022/11/23 05:40:52;;;;;;;11.38;6.53;;;11.40;66.80;;;;;;4946265;28;20103;-87
2022/11/23 05:43:18;;;;;;;10.23;6.03;;;11.50;66.80;;;;;;4954227;28;20096;-86
2022/11/23 05:45:43;;;;;;;8.45;5.57;;;11.70;66.70;;;;;;4942119;28;20032;-85
2022/11/23 05:48:09;;;;;;;9.60;5.43;;;12.10;65.60;;;;;;4957417;28;20041;-85
2022/11/23 05:50:35;;;;;;;9.93;5.63;;;12.30;64.80;;;;;;4953971;28;20033;-85
2022/11/23 05:53:01;;;;;;;11.07;6.38;;;12.70;64.30;;;;;;4943513;28;20134;-87
2022/11/23 05:55:27;;;;;;;12.43;8.20;;;12.80;63.70;;;;;;4942601;29;20057;-86
2022/11/23 05:57:53;;;;;;;13.20;7.93;;;12.60;63.90;;;;;;4952761;28;20056;-85
2022/11/23 06:00:19;;;;;;;11.20;6.75;;;12.40;65.10;;;;;;4956190;28;20032;-86
2022/11/23 06:02:45;;;;;;;13.27;7.07;;;12.50;64.50;;;;;;4943019;29;20045;-85
2022/11/23 06:05:10;;;;;;;9.93;6.15;;;12.70;63.80;;;;;;4942993;29;20083;-85
2022/11/23 06:07:36;;;;;;;9.95;5.75;;;12.80;63.90;;;;;;4942472;29;20043;-85
2022/11/23 06:10:05;;;;;;;12.98;6.90;;;12.90;63.40;;;;;;4943284;29;20093;-87
2022/11/23 06:12:31;;;;;;;10.23;6.15;;;12.90;62.40;;;;;;4941714;28;20025;-85
2022/11/23 06:14:57;;;;;;;9.73;5.47;;;12.60;63.80;;;;;;4925885;28;20242;-85
2022/11/23 06:17:22;;;;;;;12.00;6.10;;;12.60;63.30;;;;;;4909021;29;20484;-85
2022/11/23 06:19:48;;;;;;;10.25;6.55;;;12.50;64.20;;;;;;4941966;28;20540;-85
2022/11/23 06:22:14;;;;;;;11.43;6.53;;;12.70;63.90;;;;;;4958477;28;20622;-86
2022/11/23 06:24:41;;;;;;;10.20;5.88;;;13.00;63.60;;;;;;4942225;29;20079;-86
2022/11/23 06:27:06;;;;;;;16.60;10.13;;;12.90;63.40;;;;;;4942376;29;20112;-85
2022/11/23 06:29:32;;;;;;;14.27;9.15;;;12.90;63.90;;;;;;4974280;28;20111;-87
2022/11/23 06:31:58;;;;;;;11.55;7.53;;;13.10;63.10;;;;;;4969881;28;20029;-87
2022/11/23 06:34:24;;;;;;;13.63;9.43;;;13.20;62.80;;;;;;4942230;29;20036;-84
2022/11/23 06:36:49;;;;;;;12.75;7.68;;;13.20;63.20;;;;;;4942352;29;20141;-85
2022/11/23 06:39:15;;;;;;;8.80;5.10;;;13.20;62.70;;;;;;4941730;29;20029;-84
2022/11/23 06:41:40;;;;;;;9.30;5.38;;;12.70;62.60;;;;;;4942299;29;20037;-83
2022/11/23 06:44:06;;;;;;;10.65;6.53;;;12.70;63.90;;;;;;4954649;28;20037;-82
2022/11/23 06:46:32;;;;;;;11.68;7.03;;;12.60;64.40;;;;;;4941918;29;20049;-89
2022/11/23 06:48:58;;;;;;;23.17;12.88;;;12.70;63.40;;;;;;4940973;29;20051;-86
2022/11/23 06:51:23;;;;;;;17.15;11.52;;;12.90;63.00;;;;;;4940897;29;20025;-89
2022/11/23 06:53:49;;;;;;;12.25;7.78;;;12.90;63.50;;;;;;4940475;29;20033;-89
2022/11/23 06:56:15;;;;;;;12.25;7.00;;;12.90;63.70;;;;;;4971341;28;20112;-84
2022/11/23 06:58:42;;;;;;;10.02;6.28;;;13.00;63.70;;;;;;4940871;28;20065;-88
2022/11/23 07:01:09;;;;;;;11.05;6.53;;;12.20;65.00;;;;;;4944349;28;20036;-85
2022/11/23 07:03:35;;;;;;;10.45;6.40;;;12.20;63.80;;;;;;4939226;29;20049;-84
2022/11/23 07:06:09;;;;;;;7.57;5.18;;;12.40;64.40;;;;;;4941946;29;20029;-87
2022/11/23 07:08:42;;;;;;;8.50;4.72;;;12.50;63.70;;;;;;4941972;29;20040;-88
2022/11/23 07:11:09;;;;;;;7.70;4.63;;;12.70;63.40;;;;;;4941882;29;20029;-87
2022/11/23 07:13:35;;;;;;;7.00;4.70;;;12.80;63.10;;;;;;4941830;29;20365;-87
2022/11/23 07:16:00;;;;;;;14.68;10.48;;;12.70;62.90;;;;;;4942135;29;20036;-83
2022/11/23 07:18:26;;;;;;;7.72;4.90;;;11.80;64.30;;;;;;4941854;29;20021;-86
2022/11/23 07:20:52;;;;;;;29.52;18.13;;;11.10;67.20;;;;;;4941494;29;20032;-89
2022/11/23 07:23:19;;;;;;;12.40;8.50;;;11.40;66.00;;;;;;4941696;29;20041;-87
2022/11/23 07:25:45;;;;;;;11.07;7.05;;;11.50;66.00;;;;;;4941771;28;20063;-84
2022/11/23 07:28:12;;;;;;;8.55;4.78;;;11.70;66.60;;;;;;4940043;28;20040;-87
2022/11/23 07:30:38;;;;;;;9.18;5.55;;;11.90;65.70;;;;;;4925612;29;20021;-85
2022/11/23 07:33:09;;;;;;;11.93;7.47;;;12.40;65.00;;;;;;4976640;28;20043;-85
2022/11/23 07:35:37;;;;;;;7.40;4.50;;;12.50;64.80;;;;;;4945397;29;20030;-87
2022/11/23 07:38:06;;;;;;;7.57;4.80;;;12.60;63.90;;;;;;4945157;29;20077;-86
2022/11/23 07:40:32;;;;;;;7.20;4.72;;;12.50;64.20;;;;;;4961498;28;20052;-85
2022/11/23 07:42:59;;;;;;;7.28;4.60;;;12.60;63.90;;;;;;4945165;29;20049;-87
2022/11/23 07:45:26;;;;;;;8.55;4.97;;;12.50;63.90;;;;;;4945381;29;20128;-84
2022/11/23 07:48:04;;;;;;;6.78;4.50;;;12.40;64.60;;;;;;4944799;29;20033;-86
2022/11/23 07:50:30;;;;;;;6.25;3.80;;;12.30;64.50;;;;;;4943184;29;20060;-86
2022/11/23 07:52:56;;;;;;;8.10;3.97;;;12.30;63.90;;;;;;4944945;29;20080;-87
2022/11/23 07:55:22;;;;;;;5.43;3.63;;;11.90;64.90;;;;;;4945048;29;20417;-88
2022/11/23 07:57:52;;;;;;;7.95;5.30;;;11.80;65.80;;;;;;4944552;29;20124;-88
2022/11/23 08:00:19;;;;;;;7.35;4.20;;;11.30;67.20;;;;;;4944491;29;20453;-85
2022/11/23 08:02:45;;;;;;;6.97;4.50;;;11.60;66.80;;;;;;4944194;29;20432;-85
2022/11/23 08:05:10;;;;;;;7.28;4.05;;;11.70;67.30;;;;;;4944534;29;20061;-89
2022/11/23 08:07:36;;;;;;;6.03;4.13;;;11.90;66.60;;;;;;4977497;28;20120;-87
2022/11/23 08:10:02;;;;;;;6.63;4.10;;;12.30;65.30;;;;;;4977483;28;20025;-86
2022/11/23 08:12:28;;;;;;;6.35;4.00;;;12.70;64.50;;;;;;4926406;29;20037;-86
2022/11/23 08:14:54;;;;;;;5.97;3.85;;;12.00;65.10;;;;;;4944590;29;20029;-84
2022/11/23 08:17:20;;;;;;;6.22;4.38;;;11.60;65.90;;;;;;4944644;29;20454;-88
2022/11/23 08:19:45;;;;;;;6.82;4.05;;;11.80;66.30;;;;;;4944448;29;20036;-87
2022/11/23 08:22:11;;;;;;;7.18;4.60;;;12.00;65.90;;;;;;4943681;29;20048;-84
2022/11/23 08:24:37;;;;;;;7.15;4.28;;;12.00;65.60;;;;;;4944418;29;20031;-85
2022/11/23 08:27:03;;;;;;;6.75;4.18;;;11.60;65.30;;;;;;4944493;29;20088;-85
2022/11/23 08:29:29;;;;;;;8.52;4.47;;;11.40;66.90;;;;;;4944413;28;20044;-84
2022/11/23 08:31:55;;;;;;;7.05;4.30;;;11.90;66.00;;;;;;4944242;29;20370;-85
2022/11/23 08:34:20;;;;;;;6.63;4.28;;;12.30;64.70;;;;;;4944481;29;20044;-84
2022/11/23 08:36:47;;;;;;;8.05;4.15;;;12.50;63.10;;;;;;4943977;29;20025;-85
2022/11/23 08:39:13;;;;;;;7.30;4.40;;;12.50;64.00;;;;;;4946107;28;20033;-85
2022/11/23 08:41:40;;;;;;;8.50;4.68;;;11.90;65.60;;;;;;4945766;28;20104;-85
2022/11/23 08:44:08;;;;;;;7.07;4.10;;;11.90;65.40;;;;;;4946971;28;20036;-85
2022/11/23 08:46:34;;;;;;;6.65;4.10;;;11.60;67.00;;;;;;4943880;29;20056;-86
2022/11/23 08:49:00;;;;;;;7.32;4.22;;;11.80;66.60;;;;;;4944087;29;20049;-88
2022/11/23 08:51:25;;;;;;;6.80;4.28;;;12.10;66.30;;;;;;4943677;29;20025;-86
2022/11/23 08:53:51;;;;;;;6.75;3.97;;;12.30;65.50;;;;;;4943903;29;20029;-86
2022/11/23 08:56:17;;;;;;;7.88;4.43;;;12.20;64.70;;;;;;4943430;29;20080;-85
2022/11/23 08:58:43;;;;;;;6.35;3.72;;;11.60;66.90;;;;;;4943905;29;20085;-87
2022/11/23 09:01:11;;;;;;;6.90;3.63;;;11.70;66.30;;;;;;4943474;29;20033;-87
2022/11/23 09:03:37;;;;;;;8.70;3.97;;;11.90;65.90;;;;;;4943198;29;20041;-85
2022/11/23 09:06:03;;;;;;;8.50;4.47;;;12.00;66.50;;;;;;4943580;29;20045;-90
2022/11/23 09:08:29;;;;;;;6.50;4.90;;;12.10;65.00;;;;;;4943430;29;20495;-86
2022/11/23 09:11:01;;;;;;;7.32;4.22;;;12.20;66.60;;;;;;4943361;29;20048;-88
2022/11/23 09:13:28;;;;;;;6.15;4.13;;;12.40;64.70;;;;;;4943422;29;20067;-89
2022/11/23 09:16:00;;;;;;;7.95;4.22;;;12.40;64.70;;;;;;4943554;29;20029;-88
2022/11/23 09:18:29;;;;;;;7.20;4.20;;;12.50;64.80;;;;;;4943261;29;20063;-85
2022/11/23 09:20:55;;;;;;;7.13;4.50;;;12.00;65.30;;;;;;4943315;29;20080;-86
2022/11/23 09:23:21;;;;;;;6.25;4.05;;;12.20;65.10;;;;;;4943163;29;20136;-87
2022/11/23 09:25:48;;;;;;;7.47;4.35;;;12.40;65.00;;;;;;4943409;29;20033;-86
2022/11/23 09:28:15;;;;;;;7.30;4.32;;;12.30;65.10;;;;;;4943099;28;20041;-86
2022/11/23 09:30:41;;;;;;;7.65;4.35;;;12.50;65.00;;;;;;4943334;29;20473;-85
2022/11/23 09:33:07;;;;;;;6.75;4.10;;;12.70;64.50;;;;;;4942966;29;20103;-87
2022/11/23 09:35:36;;;;;;;6.75;4.05;;;13.00;62.90;;;;;;4943490;29;20060;-85
2022/11/23 09:38:01;;;;;;;16.33;14.77;;;12.70;64.50;;;;;;4942862;29;20447;-86
2022/11/23 09:40:38;;;;;;;6.95;4.55;;;12.70;64.60;;;;;;4942979;29;20540;-84
2022/11/23 09:43:25;;;;;;;9.27;5.30;;;12.40;64.80;;;;;;4942725;29;20041;-84
2022/11/23 09:45:59;;;;;;;7.65;4.68;;;12.20;65.70;;;;;;4943032;29;20026;-85
2022/11/23 09:48:53;;;;;;;7.63;5.13;;;12.20;66.50;;;;;;4942698;29;20044;-85
2022/11/23 09:51:21;;;;;;;9.23;5.20;;;12.30;65.90;;;;;;4943006;29;20025;-84
2022/11/23 09:54:01;;;;;;;7.32;4.43;;;12.60;63.90;;;;;;4942094;29;20052;-85
2022/11/23 09:56:40;;;;;;;7.50;4.80;;;12.60;65.10;;;;;;4942634;29;20045;-84
2022/11/23 09:59:38;;;;;;;8.38;4.32;;;13.00;63.80;;;;;;4942809;29;20116;-87
2022/11/23 10:02:04;;;;;;;6.65;4.10;;;13.30;62.90;;;;;;4942605;29;20484;-87
2022/11/23 10:04:34;;;;;;;7.63;4.03;;;13.10;62.40;;;;;;4942188;29;20392;-87
2022/11/23 10:07:16;;;;;;;7.80;4.47;;;13.20;63.20;;;;;;4942240;29;20108;-85
2022/11/23 10:09:53;;;;;;;7.80;4.07;;;13.50;63.10;;;;;;4942565;29;20029;-84
2022/11/23 10:12:32;;;;;;;5.93;3.78;;;13.50;62.30;;;;;;4942552;29;20029;-85
2022/11/23 10:15:23;;;;;;;7.13;4.38;;;13.30;62.00;;;;;;4942543;29;20432;-84
2022/11/23 10:18:14;;;;;;;6.53;4.05;;;13.60;62.30;;;;;;4942239;29;20029;-85
2022/11/23 10:21:05;;;;;;;5.93;4.00;;;13.50;61.60;;;;;;4942222;29;20060;-84
2022/11/23 10:23:37;;;;;;;7.05;3.95;;;13.30;62.50;;;;;;4942200;29;20045;-83
2022/11/23 10:26:02;;;;;;;5.72;3.78;;;12.60;63.90;;;;;;4942199;29;20025;-85
2022/11/23 10:28:31;;;;;;;6.50;4.25;;;12.40;65.70;;;;;;4942562;28;20499;-85
2022/11/23 10:31:19;;;;;;;7.10;4.50;;;12.80;64.40;;;;;;4942122;29;20033;-84
2022/11/23 10:33:53;;;;;;;7.35;3.83;;;13.10;64.00;;;;;;4942023;29;20029;-85
2022/11/23 10:36:18;;;;;;;6.35;4.40;;;13.50;62.60;;;;;;4942532;29;20032;-88
2022/11/23 10:38:49;;;;;;;6.10;3.83;;;13.10;63.10;;;;;;4941851;29;20034;-85
2022/11/23 10:41:15;;;;;;;19.38;4.65;;;12.60;65.20;;;;;;4941874;29;20037;-85
2022/11/23 10:43:47;;;;;;;6.22;3.95;;;12.70;64.40;;;;;;4941735;29;20033;-84
2022/11/23 10:46:50;;;;;;;6.50;4.00;;;12.90;64.10;;;;;;4941854;29;20017;-85
2022/11/23 10:49:22;;;;;;;8.30;4.47;;;13.10;64.20;;;;;;4938361;29;20129;-85
2022/11/23 10:51:57;;;;;;;8.43;3.95;;;13.20;63.30;;;;;;4941714;29;20361;-87
2022/11/23 10:54:43;;;;;;;6.63;4.15;;;13.00;64.20;;;;;;4941749;29;20035;-85
2022/11/23 10:57:27;;;;;;;7.93;4.60;;;13.10;64.00;;;;;;4928696;29;20045;-84
2022/11/23 11:00:04;;;;;;;9.95;5.53;;;13.40;63.30;;;;;;4941435;29;20480;-84
2022/11/23 11:02:57;;;;;;;8.07;5.13;;;13.60;62.90;;;;;;4941456;29;20041;-85
2022/11/23 11:05:35;;;;;;;7.93;4.68;;;13.60;63.00;;;;;;4940514;29;20084;-85
2022/11/23 11:08:12;;;;;;;8.18;5.20;;;13.70;63.40;;;;;;4940996;29;20105;-84
2022/11/23 11:10:48;;;;;;;8.02;4.95;;;13.60;62.80;;;;;;4941551;29;20033;-84
2022/11/23 11:13:31;;;;;;;7.55;4.10;;;13.50;63.30;;;;;;4941380;29;20037;-84
2022/11/23 11:16:00;;;;;;;7.30;4.47;;;13.30;63.20;;;;;;4941274;29;20028;-84
2022/11/23 11:18:35;;;;;;;8.25;4.70;;;13.40;63.30;;;;;;4941849;29;20029;-87
2022/11/23 11:21:05;;;;;;;9.15;5.45;;;13.50;63.20;;;;;;4941452;29;20380;-87
2022/11/23 11:23:33;;;;;;;8.40;5.10;;;13.50;63.10;;;;;;4941180;29;20048;-88
2022/11/23 11:26:29;;;;;;;8.85;4.90;;;13.70;62.40;;;;;;4942431;28;20029;-86
2022/11/23 11:29:01;;;;;;;8.15;4.18;;;13.80;61.80;;;;;;4925915;28;20471;-85
2022/11/23 11:31:32;;;;;;;8.27;4.85;;;13.80;61.80;;;;;;4941216;29;20496;-84
2022/11/23 11:34:09;;;;;;;8.60;5.30;;;14.00;61.60;;;;;;4941361;29;20448;-87
2022/11/23 11:36:44;;;;;;;10.50;6.43;;;14.20;61.50;;;;;;4941186;29;20035;-87
2022/11/23 11:39:17;;;;;;;10.63;7.40;;;14.10;61.40;;;;;;4941344;29;20133;-87
2022/11/23 11:41:45;;;;;;;9.63;6.45;;;14.20;61.60;;;;;;4941175;29;20029;-84
2022/11/23 11:44:23;;;;;;;8.73;5.80;;;14.50;61.50;;;;;;4941198;29;20032;-86
2022/11/23 11:47:17;;;;;;;7.78;5.22;;;14.70;60.90;;;;;;4941617;29;20028;-89
2022/11/23 11:49:47;;;;;;;7.78;4.75;;;14.80;61.00;;;;;;4941569;29;20025;-86
2022/11/23 11:52:39;;;;;;;6.83;4.67;;;14.70;60.90;;;;;;4941009;29;20030;-84
2022/11/23 11:55:22;;;;;;;7.70;4.97;;;14.30;61.20;;;;;;4932936;29;20041;-84
2022/11/23 11:58:00;;;;;;;7.43;5.00;;;14.30;61.50;;;;;;4940764;29;20056;-84
2022/11/23 12:00:28;;;;;;;8.38;5.35;;;14.30;61.90;;;;;;4941448;29;20044;-83
2022/11/23 12:03:38;;;;;;;7.22;4.60;;;14.00;62.30;;;;;;4940979;29;20080;-84
2022/11/23 12:06:26;;;;;;;8.63;4.80;;;13.70;62.60;;;;;;4937051;29;20033;-84
2022/11/23 12:09:18;;;;;;;13.82;8.07;;;13.90;62.90;;;;;;4940986;29;20029;-89
2022/11/23 12:11:44;;;;;;;9.00;5.65;;;13.80;63.80;;;;;;4941041;29;20033;-87
2022/11/23 12:14:12;;;;;;;11.93;6.68;;;13.80;63.30;;;;;;4940984;29;20515;-85
2022/11/23 12:16:38;;;;;;;9.98;6.90;;;14.00;62.40;;;;;;4940859;29;20033;-84
2022/11/23 12:19:16;;;;;;;9.32;5.80;;;13.20;63.30;;;;;;4943858;28;20088;-83
2022/11/23 12:21:59;;;;;;;10.73;6.13;;;13.10;64.70;;;;;;4944474;29;20031;-84
2022/11/23 12:24:47;;;;;;;16.40;9.07;;;13.40;64.00;;;;;;4944342;29;20029;-85
2022/11/23 12:27:42;;;;;;;18.48;10.60;;;13.10;64.10;;;;;;4944198;29;20085;-84
2022/11/23 12:30:22;;;;;;;8.52;5.50;;;12.20;67.40;;;;;;4944416;29;20115;-86
2022/11/23 12:33:00;;;;;;;13.88;8.30;;;12.70;66.20;;;;;;4943887;29;20037;-87
2022/11/23 12:35:26;;;;;;;14.43;9.70;;;13.20;65.60;;;;;;4944585;29;20040;-84
2022/11/23 12:38:00;;;;;;;13.38;9.07;;;13.60;64.40;;;;;;4943870;29;20029;-86
2022/11/23 12:40:42;;;;;;;12.13;8.35;;;13.70;64.00;;;;;;4943788;29;20028;-84
2022/11/23 12:43:12;;;;;;;10.68;6.78;;;14.10;63.40;;;;;;4879233;29;20496;-83
2022/11/23 12:45:55;;;;;;;9.45;7.03;;;14.00;63.00;;;;;;4943721;29;20027;-86
2022/11/23 12:48:32;;;;;;;9.98;6.80;;;14.20;62.30;;;;;;4943717;29;20041;-84
2022/11/23 12:51:30;;;;;;;12.02;6.50;;;14.70;61.90;;;;;;4944042;29;20059;-84